Time;durP1;ratioP1;P1;durP2;ratioP2;P2;SDS_P1;SDS_P2;PMS_P1;PMS_P2;Temp;Humidity;BMP_temperature;BMP_pressure;BME280_temperature;BME280_humidity;BME280_pressure;Samples;Min_cycle;Max_cycle;Signal;HPM_P1;HPM_P2
2021/01/06 00:01:10;;;;;;;54.03;29.25;;;;;;;0.30;100.00;99968.11;1756755;80;21365;-53
2021/01/06 00:03:38;;;;;;;54.38;27.80;;;;;;;0.30;100.00;99973.41;1752019;80;21001;-49
2021/01/06 00:09:10;;;;;;;60.25;30.77;;;;;;;0.36;100.00;99968.06;1787795;77;22780;-50
2021/01/06 00:11:41;;;;;;;57.25;30.15;;;;;;;0.31;100.00;99970.73;1761680;79;21050;-51
2021/01/06 00:14:13;;;;;;;63.50;32.80;;;;;;;0.30;100.00;99966.33;1763491;79;21373;-51
2021/01/06 00:16:40;;;;;;;;;;;;;;;0.34;100.00;99977.81;1765591;79;21582;-51
2021/01/06 00:19:09;;;;;;;62.23;30.25;;;;;;;0.33;100.00;99984.89;1763515;79;20218;-53
2021/01/06 00:21:39;;;;;;;57.53;32.03;;;;;;;0.36;100.00;99984.86;1771514;79;21609;-50
2021/01/06 00:24:08;;;;;;;63.25;33.75;;;;;;;0.35;100.00;99980.45;1760804;79;20975;-51
2021/01/06 00:26:36;;;;;;;65.22;33.18;;;;;;;0.34;100.00;99982.67;1762227;79;21371;-51
2021/01/06 00:29:12;;;;;;;52.33;29.85;;;;;;;0.36;100.00;99980.88;1761937;79;21649;-50
2021/01/06 00:31:41;;;;;;;62.55;33.00;;;;;;;0.37;100.00;99985.29;1767009;79;21149;-50
2021/01/06 00:34:10;;;;;;;56.95;29.52;;;;;;;0.34;100.00;99976.05;1761840;79;21147;-50
2021/01/06 00:36:38;;;;;;;55.08;30.43;;;;;;;0.34;100.00;99974.72;1765001;79;21146;-50
2021/01/06 00:39:06;;;;;;;57.10;29.63;;;;;;;0.35;100.00;99978.25;1762278;79;21207;-49
2021/01/06 00:41:35;;;;;;;59.50;32.73;;;;;;;0.36;100.00;99974.25;1767240;78;21189;-50
2021/01/06 00:44:03;;;;;;;67.47;33.18;;;;;;;0.37;100.00;99981.31;1763501;79;21563;-50
2021/01/06 00:46:34;;;;;;;55.25;29.80;;;;;;;0.36;100.00;99978.23;1762032;79;21058;-50
2021/01/06 00:49:04;;;;;;;62.17;31.73;;;;;;;0.39;100.00;99968.94;1762159;79;21539;-50
2021/01/06 00:51:32;;;;;;;52.35;30.10;;;;;;;0.40;100.00;99976.00;1761860;79;21393;-50
2021/01/06 00:54:02;;;;;;;48.75;27.52;;;;;;;0.42;100.00;99963.59;1763703;79;21379;-51
2021/01/06 00:56:32;;;;;;;57.90;31.02;;;;;;;0.43;100.00;99962.73;1764460;79;21102;-50
2021/01/06 00:59:01;;;;;;;59.23;30.10;;;;;;;0.43;100.00;99962.73;1756034;79;21719;-49
2021/01/06 01:01:29;;;;;;;53.73;28.30;;;;;;;0.41;100.00;99968.48;1763610;79;21566;-50
2021/01/06 01:03:58;;;;;;;53.80;29.05;;;;;;;0.43;100.00;99961.86;1735472;80;21385;-53
2021/01/06 01:06:28;;;;;;;53.15;28.90;;;;;;;0.43;100.00;99957.43;1762215;79;21117;-51
2021/01/06 01:08:56;;;;;;;56.53;30.12;;;;;;;0.44;100.00;99959.19;1756527;79;21129;-50
2021/01/06 01:11:24;;;;;;;52.20;29.07;;;;;;;0.46;100.00;99960.05;1756818;79;21146;-50
2021/01/06 01:13:52;;;;;;;57.30;29.07;;;;;;;0.47;100.00;99956.49;1757656;79;20995;-50
2021/01/06 01:16:21;;;;;;;52.03;28.42;;;;;;;0.49;100.00;99952.08;1756089;79;21598;-51
2021/01/06 01:18:49;;;;;;;54.93;29.18;;;;;;;0.50;100.00;99951.19;1758105;79;21690;-50
2021/01/06 01:21:20;;;;;;;46.95;26.95;;;;;;;0.49;100.00;99946.77;1763864;79;21654;-50
2021/01/06 01:23:48;;;;;;;50.08;28.50;;;;;;;0.50;100.00;99951.19;1754304;79;21149;-49
2021/01/06 01:26:17;;;;;;;47.67;27.20;;;;;;;0.50;100.00;99948.53;1758480;79;20975;-50
2021/01/06 01:28:45;;;;;;;51.40;26.95;;;;;;;0.50;100.00;99947.20;1755348;79;21276;-50
2021/01/06 01:31:13;;;;;;;56.90;29.72;;;;;;;0.50;100.00;99937.92;1758876;79;21240;-49
2021/01/06 01:33:42;;;;;;;54.15;30.35;;;;;;;0.51;100.00;99939.67;1756528;79;21023;-50
2021/01/06 01:36:10;;;;;;;55.80;29.63;;;;;;;0.50;100.00;99935.27;1754868;79;21189;-47
2021/01/06 01:38:39;;;;;;;51.10;28.80;;;;;;;0.49;100.00;99928.20;1754217;79;21003;-51
2021/01/06 01:41:12;;;;;;;52.48;30.02;;;;;;;0.48;100.00;99938.80;1756868;79;22259;-50
2021/01/06 01:43:40;;;;;;;52.30;29.48;;;;;;;0.50;100.00;99945.00;1754813;79;21038;-49
2021/01/06 01:46:19;;;;;;;55.48;30.05;;;;;;;0.48;100.00;99933.08;1753716;79;21574;-51
2021/01/06 01:48:55;;;;;;;60.43;31.52;;;;;;;0.52;100.00;99925.51;1855433;74;22704;-51
2021/01/06 01:51:49;;;;;;;52.88;30.40;;;;;;;0.47;100.00;99924.66;1790465;77;21049;-49
2021/01/06 01:54:17;;;;;;;55.00;28.35;;;;;;;0.47;100.00;99912.72;1784187;80;21458;-50
2021/01/06 01:56:59;;;;;;;45.80;27.07;;;;;;;0.49;100.00;99913.61;1771491;80;21061;-48
2021/01/06 01:59:56;;;;;;;58.38;29.82;;;;;;;0.58;100.00;99919.28;1839148;76;23063;-48
2021/01/06 02:02:47;;;;;;;57.23;31.62;;;;;;;0.52;100.00;99918.88;1798583;79;20966;-48
2021/01/06 02:05:19;;;;;;;64.25;32.80;;;;;;;0.50;100.00;99923.33;1799389;79;21442;-49
2021/01/06 02:08:04;;;;;;;60.17;31.68;;;;;;;0.50;100.00;99923.33;1796187;79;21041;-50
2021/01/06 02:10:34;;;;;;;55.78;29.77;;;;;;;0.49;100.00;99920.24;1800134;79;21021;-50
2021/01/06 02:13:16;;;;;;;57.48;31.95;;;;;;;0.50;100.00;99918.47;1803622;79;20973;-49
2021/01/06 02:16:06;;;;;;;59.45;31.17;;;;;;;0.57;100.00;99916.64;1831350;76;22702;-48
2021/01/06 02:18:34;;;;;;;;;;;;;;;0.50;100.00;99922.00;1727720;80;21010;-50
2021/01/06 02:21:10;;;;;;;70.75;36.00;;;;;;;0.51;100.00;99917.57;1773304;80;22213;-49
2021/01/06 02:23:37;;;;;;;69.67;36.28;;;;;;;0.50;100.00;99915.81;1771599;80;21022;-49
2021/01/06 02:26:05;;;;;;;61.10;33.73;;;;;;;0.50;100.00;99915.81;1772763;80;21010;-48
2021/01/06 02:28:33;;;;;;;57.95;32.28;;;;;;;0.50;100.00;99914.04;1742261;80;21569;-49
2021/01/06 02:31:01;;;;;;;57.50;30.57;;;;;;;0.50;100.00;99906.08;1771878;80;21273;-49
2021/01/06 02:33:30;;;;;;;63.73;33.70;;;;;;;0.51;100.00;99910.94;1750866;80;21464;-48
2021/01/06 02:35:58;;;;;;;66.95;33.53;;;;;;;0.49;100.00;99901.67;1756588;80;21550;-49
2021/01/06 02:38:26;;;;;;;63.95;33.58;;;;;;;0.50;100.00;99910.51;1752248;80;21061;-48
2021/01/06 02:40:54;;;;;;;67.85;34.80;;;;;;;0.50;100.00;99916.69;1756099;80;21003;-48
2021/01/06 02:43:22;;;;;;;64.87;33.73;;;;;;;0.49;100.00;99908.30;1771452;80;21022;-48
2021/01/06 02:45:50;;;;;;;64.42;34.70;;;;;;;0.51;100.00;99909.16;1754927;80;21386;-49
2021/01/06 02:48:19;;;;;;;69.12;33.78;;;;;;;0.50;100.00;99908.73;1751798;80;21732;-49
2021/01/06 02:50:49;;;;;;;73.15;36.60;;;;;;;0.52;100.00;99908.27;1755049;80;21003;-49
2021/01/06 02:53:20;;;;;;;72.65;34.25;;;;;;;0.51;100.00;99902.53;1745083;80;21160;-48
2021/01/06 02:55:49;;;;;;;67.58;34.08;;;;;;;0.54;100.00;99901.64;1727599;80;21063;-50
2021/01/06 02:58:21;;;;;;;59.10;30.95;;;;;;;0.55;100.00;99897.21;1757105;80;21211;-50
2021/01/06 03:00:50;;;;;;;57.98;31.12;;;;;;;0.57;100.00;99903.38;1755221;80;21574;-52
2021/01/06 03:03:19;;;;;;;57.90;31.10;;;;;;;0.57;100.00;99909.56;1758802;79;21179;-48
2021/01/06 03:05:50;;;;;;;58.70;33.55;;;;;;;0.56;100.00;99906.92;1740135;80;21425;-49
2021/01/06 03:08:19;;;;;;;67.90;35.35;;;;;;;0.56;100.00;99910.91;1719212;80;21112;-49
2021/01/06 03:10:47;;;;;;;68.02;34.80;;;;;;;0.55;100.00;99910.48;1757779;80;21203;-49
2021/01/06 03:13:15;;;;;;;62.90;34.40;;;;;;;0.56;100.00;99914.89;1770888;80;21073;-48
2021/01/06 03:15:43;;;;;;;61.40;32.65;;;;;;;0.59;100.00;99914.88;1743176;79;21553;-49
2021/01/06 03:18:11;;;;;;;68.37;35.40;;;;;;;0.59;100.00;99909.57;1761401;80;20970;-49
2021/01/06 03:20:41;;;;;;;63.20;34.40;;;;;;;0.59;100.00;99912.23;1773279;80;21140;-49
2021/01/06 03:23:31;;;;;;;64.55;34.20;;;;;;;0.61;100.00;99906.45;1760003;80;22285;-49
2021/01/06 03:26:02;;;;;;;63.42;33.25;;;;;;;0.61;100.00;99913.08;1775530;80;21164;-50
2021/01/06 03:28:30;;;;;;;58.40;32.42;;;;;;;0.61;100.00;99905.12;1751350;80;21175;-49
2021/01/06 03:30:58;;;;;;;62.58;34.03;;;;;;;0.62;100.00;99906.88;1761892;80;21112;-50
2021/01/06 03:33:37;;;;;;;66.02;34.70;;;;;;;0.62;100.00;99910.86;1777233;79;21180;-49
2021/01/06 03:36:17;;;;;;;69.58;35.03;;;;;;;0.67;100.00;99900.64;1788699;77;22815;-48
2021/01/06 03:39:05;;;;;;;72.45;36.30;;;;;;;0.60;100.00;99903.37;1756871;79;20993;-48
2021/01/06 03:41:33;;;;;;;71.37;35.43;;;;;;;0.61;100.00;99902.47;1759602;78;21370;-49
2021/01/06 03:44:06;;;;;;;68.75;35.70;;;;;;;0.61;100.00;99898.48;1745793;79;20984;-49
2021/01/06 03:46:46;;;;;;;69.27;36.63;;;;;;;0.60;100.00;99906.02;1727130;79;21052;-49
2021/01/06 03:49:50;;;;;;;67.27;35.60;;;;;;;0.60;100.00;99908.67;1755976;79;20950;-50
2021/01/06 03:52:44;;;;;;;74.58;36.93;;;;;;;0.60;100.00;99898.06;1760830;79;21017;-48
2021/01/06 03:55:45;;;;;;;72.32;34.53;;;;;;;0.59;100.00;99914.88;1738770;79;22232;-49
2021/01/06 03:58:55;;;;;;;80.07;39.18;;;;;;;0.61;100.00;99899.81;1759899;79;21597;-49
2021/01/06 04:01:56;;;;;;;73.40;35.20;;;;;;;0.65;100.00;99896.25;1766242;79;21029;-49
2021/01/06 04:04:42;;;;;;;78.30;38.30;;;;;;;0.68;100.00;99906.83;1756920;79;21038;-49
2021/01/06 04:07:18;;;;;;;69.37;36.20;;;;;;;0.66;100.00;99907.30;1725521;79;21686;-50
2021/01/06 04:09:54;;;;;;;70.83;37.13;;;;;;;0.64;100.00;99902.42;1756814;79;21362;-49
2021/01/06 04:12:22;;;;;;;79.87;40.58;;;;;;;0.61;100.00;99902.47;1754115;79;21179;-49
2021/01/06 04:14:50;;;;;;;87.35;41.18;;;;;;;0.61;100.00;99895.83;1762653;79;21183;-49
2021/01/06 04:17:39;;;;;;;77.17;39.03;;;;;;;0.62;100.00;99893.61;1755415;79;21358;-49
2021/01/06 04:20:33;;;;;;;88.60;45.05;;;;;;;0.60;100.00;99888.77;1757441;79;20961;-49
2021/01/06 04:23:14;;;;;;;82.50;39.85;;;;;;;0.60;100.00;99888.32;1757972;79;21377;-48
2021/01/06 04:25:48;;;;;;;78.83;38.60;;;;;;;0.61;100.00;99894.51;1754894;77;21167;-50
2021/01/06 04:28:27;;;;;;;76.97;38.73;;;;;;;0.65;100.00;99894.48;1808858;76;22860;-50
2021/01/06 04:31:03;;;;;;;82.72;40.67;;;;;;;0.59;100.00;99895.86;1759936;79;21103;-47
2021/01/06 04:33:50;;;;;;;82.88;40.15;;;;;;;0.61;100.00;99894.51;1754373;79;21552;-49
2021/01/06 04:36:29;;;;;;;73.90;35.80;;;;;;;0.59;100.00;99885.69;1753449;79;21667;-48
2021/01/06 04:38:59;;;;;;;72.65;33.58;;;;;;;0.65;100.00;99893.59;1726602;79;20969;-48
2021/01/06 04:41:38;;;;;;;84.35;38.08;;;;;;;0.65;100.00;99896.25;1752030;79;20989;-50
2021/01/06 04:44:46;;;;;;;80.47;39.35;;;;;;;0.63;100.00;99903.33;1759007;79;20953;-47
2021/01/06 04:47:58;;;;;;;82.47;39.92;;;;;;;0.61;100.00;99910.43;1758812;79;21501;-48
2021/01/06 04:51:04;;;;;;;78.20;36.70;;;;;;;0.63;100.00;99921.90;1750928;79;21544;-49
2021/01/06 04:53:56;;;;;;;77.32;39.73;;;;;;;0.63;100.00;99921.90;1751581;79;21651;-49
2021/01/06 04:56:53;;;;;;;97.10;42.20;;;;;;;0.66;100.00;99916.59;1812113;75;23367;-50
2021/01/06 04:59:45;;;;;;;117.50;45.90;;;;;;;0.59;100.00;99920.19;1766070;77;20990;-49
2021/01/06 05:02:27;;;;;;;81.42;39.08;;;;;;;0.58;100.00;99926.36;1787788;77;21385;-48
2021/01/06 05:05:15;;;;;;;84.28;40.50;;;;;;;0.60;100.00;99927.25;1747243;77;20974;-47
2021/01/06 05:08:05;;;;;;;81.90;37.20;;;;;;;0.62;100.00;99935.62;1821633;77;22784;-49
2021/01/06 05:10:45;;;;;;;94.10;41.70;;;;;;;0.56;100.00;99932.14;1790186;78;21013;-48
2021/01/06 05:13:18;;;;;;;114.52;43.80;;;;;;;0.59;100.00;99933.45;1788214;78;22366;-50
2021/01/06 05:15:55;;;;;;;105.20;41.20;;;;;;;0.58;100.00;99931.66;1723440;80;21779;-50
2021/01/06 05:18:22;;;;;;;87.62;38.20;;;;;;;0.58;100.00;99930.34;1792345;78;21184;-49
2021/01/06 05:20:50;;;;;;;81.40;38.70;;;;;;;0.57;100.00;99929.91;1797179;78;20978;-50
2021/01/06 05:23:24;;;;;;;80.03;41.98;;;;;;;0.58;100.00;99939.63;1789455;78;20976;-50
2021/01/06 05:25:53;;;;;;;86.00;41.10;;;;;;;0.58;100.00;99936.97;1788226;78;21372;-48
2021/01/06 05:28:21;;;;;;;90.15;43.28;;;;;;;0.58;100.00;99950.24;1780455;78;21009;-50
2021/01/06 05:30:55;;;;;;;98.07;43.40;;;;;;;0.59;100.00;99953.36;1790953;78;21005;-51
2021/01/06 05:33:37;;;;;;;83.55;38.48;;;;;;;0.60;100.00;99939.19;1778799;78;21091;-50
2021/01/06 05:36:06;;;;;;;97.20;45.58;;;;;;;0.61;100.00;99942.27;1788230;78;20949;-49
2021/01/06 05:38:34;;;;;;;88.58;44.50;;;;;;;0.61;100.00;99944.92;1789400;78;21195;-49
2021/01/06 05:41:02;;;;;;;84.42;42.30;;;;;;;0.61;100.00;99940.95;1789337;78;21010;-49
2021/01/06 05:43:39;;;;;;;93.37;43.92;;;;;;;0.62;100.00;99947.56;1789309;78;21569;-49
2021/01/06 05:46:15;;;;;;;89.60;44.60;;;;;;;0.65;100.00;99950.20;1789240;78;21573;-50
2021/01/06 05:49:10;;;;;;;92.15;42.20;;;;;;;0.75;100.00;99939.09;1844300;76;22743;-49
2021/01/06 05:51:58;;;;;;;77.97;39.25;;;;;;;0.75;100.00;99937.75;1817209;76;23300;-50
2021/01/06 05:54:51;;;;;;;86.30;42.05;;;;;;;0.70;100.00;99942.22;1798774;77;21233;-49
2021/01/06 05:57:47;;;;;;;80.28;41.92;;;;;;;0.74;100.00;99935.97;1759046;79;21194;-50
2021/01/06 06:00:45;;;;;;;88.92;41.28;;;;;;;0.77;100.00;99945.25;1756008;79;21064;-49
2021/01/06 06:03:39;;;;;;;93.87;40.73;;;;;;;0.76;100.00;99942.17;1761788;79;21013;-49
2021/01/06 06:06:38;;;;;;;85.03;41.45;;;;;;;0.76;100.00;99939.06;1759399;79;20985;-50
2021/01/06 06:09:19;;;;;;;89.07;42.23;;;;;;;0.79;100.00;99951.41;1759938;79;21122;-50
2021/01/06 06:12:16;;;;;;;80.15;38.75;;;;;;;0.80;100.00;99951.88;1756639;79;22216;-50
2021/01/06 06:15:38;;;;;;;103.10;44.03;;;;;;;0.86;100.00;99947.84;1799046;78;22804;-49
2021/01/06 06:18:32;;;;;;;97.85;42.80;;;;;;;0.81;100.00;99956.29;1769983;79;21276;-49
2021/01/06 06:21:07;;;;;;;78.62;36.68;;;;;;;0.81;100.00;99958.06;1745527;79;21416;-50
2021/01/06 06:24:06;;;;;;;77.20;35.48;;;;;;;0.80;100.00;99962.50;1770355;79;21613;-50
2021/01/06 06:27:04;;;;;;;82.02;36.00;;;;;;;0.79;100.00;99968.67;1773674;79;21005;-50
2021/01/06 06:30:14;;;;;;;111.10;40.80;;;;;;;0.77;100.00;99970.47;1773005;79;21065;-52
2021/01/06 06:32:43;;;;;;;110.83;42.35;;;;;;;0.77;100.00;99970.47;1771521;79;20990;-50
2021/01/06 06:35:35;;;;;;;97.95;39.27;;;;;;;0.79;100.00;99963.36;1767584;79;21367;-48
2021/01/06 06:38:06;;;;;;;82.05;36.35;;;;;;;0.81;100.00;99969.56;1772087;79;21001;-50
2021/01/06 06:41:02;;;;;;;92.85;38.60;;;;;;;0.79;100.00;99970.00;1771003;79;21627;-51
2021/01/06 06:43:40;;;;;;;70.75;32.65;;;;;;;0.78;100.00;99970.45;1772288;79;21032;-50
2021/01/06 06:46:29;;;;;;;73.17;35.58;;;;;;;0.79;100.00;99961.58;1773874;79;20998;-52
2021/01/06 06:49:31;;;;;;;82.62;36.68;;;;;;;0.79;100.00;99971.32;1774584;79;21390;-52
2021/01/06 06:52:28;;;;;;;81.72;40.08;;;;;;;0.81;100.00;99966.91;1772356;79;21005;-50
2021/01/06 06:55:23;;;;;;;90.55;41.15;;;;;;;0.84;100.00;99969.52;1744697;80;21155;-52
2021/01/06 06:58:08;;;;;;;88.50;42.05;;;;;;;0.87;100.00;99964.65;1773865;79;20985;-49
2021/01/06 07:00:36;;;;;;;97.17;41.73;;;;;;;0.86;100.00;99959.79;1773344;79;21685;-50
2021/01/06 07:03:05;;;;;;;90.22;40.50;;;;;;;0.87;100.00;99960.22;1773579;79;21387;-50
2021/01/06 07:05:50;;;;;;;95.40;42.13;;;;;;;0.87;100.00;99958.89;1772478;79;21052;-50
2021/01/06 07:08:40;;;;;;;88.78;39.78;;;;;;;0.88;100.00;99962.42;1774680;79;20978;-53
2021/01/06 07:11:21;;;;;;;79.77;36.88;;;;;;;0.93;100.00;99965.48;1791598;76;22704;-55
2021/01/06 07:13:58;;;;;;;80.92;38.50;;;;;;;0.89;100.00;99962.40;1762789;79;20938;-56
2021/01/06 07:16:53;;;;;;;89.62;39.75;;;;;;;0.91;100.00;99957.98;1758172;79;22042;-55
2021/01/06 07:19:35;;;;;;;81.42;35.63;;;;;;;0.90;100.00;99964.16;1756741;79;20985;-53
2021/01/06 07:22:38;;;;;;;106.15;41.48;;;;;;;0.97;100.00;99957.92;1818763;76;22703;-53
2021/01/06 07:25:19;;;;;;;92.88;38.80;;;;;;;0.91;100.00;99961.97;1789246;77;20950;-54
2021/01/06 07:27:54;;;;;;;95.00;39.90;;;;;;;0.92;100.00;99962.39;1789651;77;21335;-53
2021/01/06 07:30:34;;;;;;;102.38;40.85;;;;;;;0.93;100.00;99966.80;1791292;77;21096;-55
2021/01/06 07:36:14;;;;;;;119.15;42.48;;;;;;;1.00;100.00;99955.23;1836354;76;22601;-54
2021/01/06 07:38:43;;;;;;;103.07;41.75;;;;;;;0.96;100.00;99960.16;1797233;77;21001;-55
2021/01/06 07:41:11;;;;;;;103.90;46.02;;;;;;;0.97;100.00;99964.56;1767368;79;21334;-56
2021/01/06 07:43:44;;;;;;;97.35;43.05;;;;;;;0.99;100.00;99966.75;1762653;79;21017;-57
2021/01/06 07:46:17;;;;;;;106.78;46.90;;;;;;;0.98;100.00;99961.01;1764514;78;21065;-57
2021/01/06 07:49:02;;;;;;;95.83;38.70;;;;;;;0.97;100.00;99965.89;1733618;80;20972;-50
2021/01/06 07:51:35;;;;;;;106.17;44.05;;;;;;;0.96;100.00;99965.47;1765819;79;21791;-57
2021/01/06 07:54:14;;;;;;;96.42;39.20;;;;;;;0.97;100.00;99968.55;1763994;78;21392;-58
2021/01/06 07:57:21;;;;;;;100.07;42.03;;;;;;;1.00;100.00;99975.14;1763154;78;21030;-58
2021/01/06 07:59:58;;;;;;;114.90;45.83;;;;;;;1.09;100.00;99972.00;1805676;76;22865;-54
2021/01/06 08:02:46;;;;;;;100.75;45.00;;;;;;;1.03;100.00;99979.11;1761281;79;21664;-54
2021/01/06 08:05:30;;;;;;;110.85;42.67;;;;;;;1.04;100.00;99986.18;1757451;77;21621;-52
2021/01/06 08:08:11;;;;;;;95.00;41.65;;;;;;;1.04;100.00;99986.18;1760770;78;20969;-54
2021/01/06 08:10:44;;;;;;;93.78;41.95;;;;;;;1.07;100.00;99987.95;1748635;79;28581;-58
2021/01/06 08:13:29;;;;;;;99.03;42.27;;;;;;;1.11;100.00;99991.44;1759436;79;21465;-58
2021/01/06 08:16:21;;;;;;;85.90;38.88;;;;;;;1.15;100.00;100001.16;1764718;78;21570;-56
2021/01/06 08:19:16;;;;;;;98.35;42.17;;;;;;;1.17;100.00;100002.01;1771169;79;21432;-62
2021/01/06 08:22:22;;;;;;;95.53;40.38;;;;;;;1.17;100.00;99996.70;1764721;79;21009;-59
2021/01/06 08:25:10;;;;;;;99.05;41.15;;;;;;;1.20;100.00;99999.34;1759290;79;21010;-55
2021/01/06 08:27:38;;;;;;;88.37;39.53;;;;;;;1.21;100.00;100001.09;1756909;79;21628;-58
2021/01/06 08:30:22;;;;;;;95.57;43.10;;;;;;;1.24;100.00;99993.12;1757891;79;21127;-55
2021/01/06 08:33:03;;;;;;;88.82;41.30;;;;;;;1.26;100.00;99999.28;1750271;79;21282;-50
2021/01/06 08:35:34;;;;;;;83.67;39.98;;;;;;;1.27;100.00;99999.71;1760743;79;21159;-52
2021/01/06 08:38:02;;;;;;;107.80;45.40;;;;;;;1.25;100.00;100000.19;1758892;79;21239;-50
2021/01/06 08:40:37;;;;;;;92.62;40.90;;;;;;;1.23;100.00;100003.31;1762721;78;21174;-53
2021/01/06 08:43:11;;;;;;;121.77;47.38;;;;;;;1.23;100.00;99997.55;1757729;79;21497;-52
2021/01/06 08:45:54;;;;;;;106.55;45.03;;;;;;;1.23;100.00;99991.36;1759810;78;21344;-51
2021/01/06 08:48:32;;;;;;;101.55;42.60;;;;;;;1.22;100.00;99990.90;1764551;79;21040;-49
2021/01/06 08:51:10;;;;;;;95.17;41.48;;;;;;;1.27;100.00;100001.05;1762937;79;21532;-51
2021/01/06 08:53:47;;;;;;;106.80;44.40;;;;;;;1.41;100.00;99999.16;1815360;76;22812;-53
2021/01/06 08:56:24;;;;;;;104.07;43.28;;;;;;;1.47;100.00;99998.21;1759305;78;20988;-49
2021/01/06 08:58:55;;;;;;;84.25;40.55;;;;;;;1.60;100.00;99996.30;1752975;79;21445;-49
2021/01/06 09:01:44;;;;;;;90.67;41.28;;;;;;;1.67;100.00;100003.34;1740100;80;21641;-50
2021/01/06 09:04:18;;;;;;;88.00;38.92;;;;;;;1.69;100.00;99998.88;1755594;79;21074;-52
2021/01/06 09:06:56;;;;;;;81.82;36.83;;;;;;;1.74;100.00;99993.06;1759022;79;21210;-54
2021/01/06 09:10:06;;;;;;;76.45;37.40;;;;;;;1.73;100.00;99999.29;1726133;80;21027;-55
2021/01/06 09:13:00;;;;;;;75.47;36.30;;;;;;;1.75;100.00;99994.82;1757877;79;21203;-53
2021/01/06 09:16:01;;;;;;;71.75;35.95;;;;;;;1.79;100.00;99992.57;1755426;79;21229;-52
2021/01/06 09:18:51;;;;;;;73.97;35.30;;;;;;;1.80;100.00;99998.31;1758013;79;21571;-53
2021/01/06 09:21:29;;;;;;;70.47;34.18;;;;;;;1.82;100.00;99990.77;1835698;75;23041;-51
2021/01/06 09:24:23;;;;;;;73.70;35.00;;;;;;;1.72;100.00;100001.52;1774429;77;21025;-54
2021/01/06 09:27:04;;;;;;;74.00;35.15;;;;;;;1.68;100.00;99991.80;1844107;75;22687;-50
2021/01/06 09:29:36;;;;;;;70.45;35.43;;;;;;;1.60;100.00;100001.62;1804907;77;21276;-52
2021/01/06 09:32:14;;;;;;;68.55;34.20;;;;;;;1.58;100.00;99997.20;1790085;79;21333;-51
2021/01/06 09:34:48;;;;;;;70.92;33.78;;;;;;;1.55;100.00;99999.04;1760941;80;21215;-50
2021/01/06 09:37:28;;;;;;;65.55;33.18;;;;;;;1.49;100.00;99997.32;1793531;78;21054;-52
2021/01/06 09:39:59;;;;;;;64.47;32.85;;;;;;;1.48;100.00;99991.55;1795316;79;21205;-56
2021/01/06 09:42:27;;;;;;;72.82;34.48;;;;;;;1.51;100.00;99988.88;1793199;79;26716;-59
2021/01/06 09:44:55;;;;;;;78.37;37.25;;;;;;;1.52;100.00;99989.30;1788554;79;21249;-57
2021/01/06 09:47:36;;;;;;;83.62;36.95;;;;;;;1.52;100.00;99986.64;1789675;79;21040;-57
2021/01/06 09:50:23;;;;;;;80.87;36.68;;;;;;;1.53;100.00;99992.83;1791167;79;21164;-52
2021/01/06 09:52:52;;;;;;;84.13;38.40;;;;;;;1.54;100.00;99992.81;1790166;78;21134;-57
2021/01/06 09:55:22;;;;;;;72.20;35.10;;;;;;;1.55;100.00;99993.27;1764243;79;21226;-53
2021/01/06 09:58:19;;;;;;;67.45;33.85;;;;;;;1.56;100.00;99988.38;1790117;79;22320;-56
2021/01/06 10:01:13;;;;;;;79.32;34.38;;;;;;;1.56;100.00;99988.38;1787687;79;21839;-50
2021/01/06 10:03:42;;;;;;;73.10;34.03;;;;;;;1.51;100.00;99984.89;1793362;79;20998;-54
2021/01/06 10:06:34;;;;;;;76.42;35.63;;;;;;;1.51;100.00;99986.66;1791718;79;20986;-52
2021/01/06 10:09:30;;;;;;;65.67;33.05;;;;;;;1.50;100.00;99983.13;1792254;79;21222;-50
2021/01/06 10:12:44;;;;;;;81.30;37.30;;;;;;;1.52;100.00;99980.00;1795808;78;21369;-53
2021/01/06 10:15:43;;;;;;;76.02;33.88;;;;;;;1.49;100.00;99979.13;1789133;78;21568;-54
2021/01/06 10:18:43;;;;;;;69.72;34.10;;;;;;;1.49;100.00;99977.81;1788611;78;21009;-53
2021/01/06 10:21:38;;;;;;;72.82;32.85;;;;;;;1.49;100.00;99978.72;1786783;79;21561;-53
2021/01/06 10:25:07;;;;;;;69.15;32.08;;;;;;;1.54;100.00;99982.18;1792479;78;22869;-51
2021/01/06 10:27:41;;;;;;;70.25;33.18;;;;;;;1.50;100.00;99979.14;1732776;80;21528;-55
2021/01/06 10:30:17;;;;;;;74.95;36.93;;;;;;;1.52;100.00;99986.64;1735009;80;21387;-55
2021/01/06 10:33:12;;;;;;;71.70;34.65;;;;;;;1.55;100.00;99983.09;1737209;80;21021;-54
2021/01/06 10:36:23;;;;;;;74.77;35.92;;;;;;;1.63;100.00;99979.89;1792317;78;23936;-54
2021/01/06 10:38:52;;;;;;;70.50;35.88;;;;;;;1.60;100.00;99998.96;1722453;79;21051;-54
2021/01/06 10:41:33;;;;;;;75.75;36.93;;;;;;;1.61;100.00;99988.79;1760225;79;21190;-53
2021/01/06 10:44:02;;;;;;;76.67;37.95;;;;;;;1.61;100.00;99991.45;1759400;79;21076;-54
2021/01/06 10:46:46;;;;;;;77.08;36.30;;;;;;;1.62;100.00;99995.86;1757697;79;21588;-56
2021/01/06 10:49:26;;;;;;;88.97;39.98;;;;;;;1.62;100.00;99991.88;1726653;80;20957;-53
2021/01/06 10:52:09;;;;;;;74.75;37.63;;;;;;;1.65;100.00;99993.16;1694055;82;20997;-53
2021/01/06 10:54:59;;;;;;;67.03;34.58;;;;;;;1.66;100.00;99990.95;1729908;80;21004;-51
2021/01/06 10:57:50;;;;;;;80.87;39.23;;;;;;;1.66;100.00;99993.61;1727588;80;21026;-51
2021/01/06 11:00:26;;;;;;;84.42;39.20;;;;;;;1.67;100.00;99995.38;1694849;81;20996;-51
2021/01/06 11:03:18;;;;;;;84.80;41.10;;;;;;;1.68;100.00;99991.80;1726136;80;21176;-51
2021/01/06 11:05:57;;;;;;;85.53;40.17;;;;;;;1.70;100.00;99987.34;1725058;80;21627;-51
2021/01/06 11:09:22;;;;;;;83.55;40.25;;;;;;;1.73;100.00;99984.66;1723308;80;21391;-51
2021/01/06 11:12:19;;;;;;;81.37;39.95;;;;;;;1.77;100.00;99989.06;1730325;80;21644;-50
2021/01/06 11:15:25;;;;;;;86.42;44.95;;;;;;;1.76;100.00;99981.53;1726986;80;21127;-50
2021/01/06 11:18:24;;;;;;;84.10;42.60;;;;;;;1.76;100.00;99992.63;1729984;80;21129;-51
2021/01/06 11:21:16;;;;;;;83.07;41.65;;;;;;;1.78;100.00;99996.13;1728325;81;21730;-53
2021/01/06 11:23:53;;;;;;;84.60;39.55;;;;;;;1.81;100.00;99993.42;1724400;80;21272;-48
2021/01/06 11:26:45;;;;;;;77.95;39.03;;;;;;;1.83;100.00;100008.48;1736101;80;21172;-52
2021/01/06 11:29:27;;;;;;;82.65;39.53;;;;;;;1.84;100.00;99997.39;1731442;80;20999;-54
2021/01/06 11:32:19;;;;;;;78.60;39.08;;;;;;;1.85;100.00;99997.81;1727108;80;21106;-51
2021/01/06 11:34:50;;;;;;;73.50;36.10;;;;;;;1.85;100.00;99995.16;1733026;80;21591;-54
2021/01/06 11:37:37;;;;;;;76.17;38.58;;;;;;;1.85;100.00;99997.81;1735798;81;21213;-51
2021/01/06 11:40:09;;;;;;;73.62;35.52;;;;;;;1.87;100.00;99993.38;1725662;80;21100;-51
2021/01/06 11:43:02;;;;;;;77.95;37.13;;;;;;;1.88;100.00;99995.14;1734275;81;21123;-52
2021/01/06 11:45:46;;;;;;;75.42;36.48;;;;;;;1.89;100.00;99995.56;1730060;80;22171;-51
2021/01/06 11:48:36;;;;;;;75.85;36.70;;;;;;;1.95;100.00;99984.85;1819089;76;22797;-51
2021/01/06 11:51:23;;;;;;;76.60;36.60;;;;;;;1.91;100.00;99981.79;1773599;78;20996;-52
2021/01/06 11:54:22;;;;;;;79.60;39.25;;;;;;;1.92;100.00;99978.25;1775580;78;21353;-54
2021/01/06 11:56:56;;;;;;;77.80;35.45;;;;;;;1.91;100.00;99972.48;1776162;78;21381;-56
2021/01/06 11:59:41;;;;;;;76.07;36.77;;;;;;;1.91;100.00;99973.81;1773241;78;21045;-56
2021/01/06 12:02:37;;;;;;;80.05;36.45;;;;;;;1.93;100.00;99974.69;1772690;78;20977;-52
2021/01/06 12:05:19;;;;;;;76.00;36.25;;;;;;;1.93;100.00;99977.35;1776774;79;20977;-52
2021/01/06 12:08:13;;;;;;;79.03;38.88;;;;;;;1.92;100.00;99980.92;1771520;78;22275;-54
2021/01/06 12:11:09;;;;;;;85.15;39.48;;;;;;;1.94;100.00;99983.09;1771914;78;21080;-53
2021/01/06 12:14:05;;;;;;;96.53;44.48;;;;;;;1.94;100.00;99981.77;1776905;78;20946;-58
2021/01/06 12:17:06;;;;;;;100.67;47.98;;;;;;;1.94;100.00;99979.11;1779792;78;21111;-53
2021/01/06 12:20:05;;;;;;;115.20;49.95;;;;;;;1.97;100.00;99989.72;1779977;78;20931;-49
2021/01/06 12:22:35;;;;;;;102.25;48.40;;;;;;;1.99;100.00;99982.59;1779517;78;21392;-54
2021/01/06 12:25:28;;;;;;;94.83;45.45;;;;;;;1.99;100.00;99982.59;1779230;78;21187;-56